Time;durP1;ratioP1;P1;durP2;ratioP2;P2;SDS_P1;SDS_P2;PMS_P1;PMS_P2;Temp;Humidity;BMP_temperature;BMP_pressure;BME280_temperature;BME280_humidity;BME280_pressure;Samples;Min_cycle;Max_cycle;Signal;HPM_P1;HPM_P2
2021/12/22 01:27:35;;;;;;;17.15;6.00;;;-5.40;99.90;;;;;;6184332;23;19955;-79
2021/12/22 01:30:06;;;;;;;16.08;7.20;;;-5.50;99.90;;;;;;6214632;23;19990;-81
2021/12/22 01:32:32;;;;;;;19.88;9.02;;;-5.50;99.90;;;;;;6214962;23;20001;-80
2021/12/22 01:34:57;;;;;;;31.10;11.88;;;-5.70;99.90;;;;;;6214884;23;20052;-81
2021/12/22 01:37:23;;;;;;;31.77;12.40;;;-5.70;99.90;;;;;;6214945;23;20000;-79
2021/12/22 01:39:49;;;;;;;28.98;10.60;;;-5.50;99.90;;;;;;6214054;23;20053;-81
2021/12/22 01:42:15;;;;;;;24.42;9.98;;;-5.60;99.90;;;;;;6213757;23;20005;-81
2021/12/22 01:50:40;;;;;;;24.58;8.60;;;-5.40;99.90;;;;;;6215095;23;20016;-79
2021/12/22 01:53:19;;;;;;;18.35;7.82;;;-5.40;99.90;;;;;;6214614;23;19989;-79
2021/12/22 02:59:52;;;;;;;15.48;6.22;;;-5.90;99.90;;;;;;6156646;23;20276;31
2021/12/22 03:02:28;;;;;;;13.55;6.15;;;-6.00;99.90;;;;;;6179655;23;20002;-78
2021/12/22 03:04:55;;;;;;;14.90;6.10;;;-5.90;99.90;;;;;;6153202;23;19990;-77
2021/12/22 03:07:24;;;;;;;13.75;6.43;;;-5.90;99.90;;;;;;6155591;23;20046;-77
2021/12/22 03:09:59;;;;;;;11.15;5.53;;;-5.90;99.90;;;;;;6155465;23;20013;-81
2021/12/22 03:12:26;;;;;;;14.93;6.28;;;-6.00;99.90;;;;;;6154855;23;20020;-79
2021/12/22 03:14:52;;;;;;;12.23;5.82;;;-6.00;99.90;;;;;;6154618;23;20001;-80
2021/12/22 03:17:21;;;;;;;16.60;6.97;;;-6.00;99.90;;;;;;6154531;23;19994;-81
2021/12/22 03:19:46;;;;;;;14.93;5.97;;;-6.10;99.90;;;;;;6155438;23;19993;-80
2021/12/22 03:22:17;;;;;;;19.05;8.30;;;-6.10;99.90;;;;;;6154530;23;20025;-76
2021/12/22 03:24:44;;;;;;;16.00;6.75;;;-6.30;99.90;;;;;;6155137;23;20006;-82
2021/12/22 03:27:10;;;;;;;22.30;9.10;;;-6.20;99.90;;;;;;6154851;23;19994;-80
2021/12/22 03:29:38;;;;;;;22.17;9.55;;;-6.30;99.90;;;;;;6155294;23;19986;-81
2021/12/22 03:32:05;;;;;;;15.55;7.57;;;-6.30;99.90;;;;;;6155032;23;20437;-81
2021/12/22 03:34:31;;;;;;;17.92;8.02;;;-6.30;99.90;;;;;;6155217;23;19986;-82
2021/12/22 03:36:57;;;;;;;15.15;6.95;;;-6.30;99.90;;;;;;6154382;23;19990;-81
2021/12/22 03:39:23;;;;;;;17.00;7.93;;;-6.20;99.90;;;;;;6155014;23;19986;-81
2021/12/22 03:41:50;;;;;;;16.75;6.88;;;-6.20;99.90;;;;;;6154813;23;20034;-81
2021/12/22 03:44:15;;;;;;;17.75;7.28;;;-6.10;99.90;;;;;;6154572;23;20002;-79
2021/12/22 03:46:42;;;;;;;14.20;7.20;;;-6.10;99.90;;;;;;6154072;23;19990;-81
2021/12/22 03:49:10;;;;;;;17.48;7.00;;;-6.00;99.90;;;;;;6153459;23;19986;-82
2021/12/22 03:51:36;;;;;;;16.67;5.60;;;-5.90;99.90;;;;;;6155193;23;20024;-81
2021/12/22 03:54:04;;;;;;;13.40;6.22;;;-5.90;99.90;;;;;;6154235;23;20018;-81
2021/12/22 03:56:30;;;;;;;13.32;6.57;;;-5.90;99.90;;;;;;6155428;23;19997;-75
2021/12/22 03:58:56;;;;;;;20.30;6.22;;;-5.90;99.90;;;;;;6154380;23;20077;-79
2021/12/22 04:01:22;;;;;;;14.85;6.50;;;-5.60;99.90;;;;;;6154188;23;20010;-83
2021/12/22 04:03:54;;;;;;;27.98;10.20;;;-5.70;99.90;;;;;;6156629;23;20014;-79
2021/12/22 04:06:21;;;;;;;17.90;7.88;;;-5.60;99.90;;;;;;6156980;23;20001;-79
2021/12/22 04:08:46;;;;;;;18.83;7.60;;;-5.50;99.90;;;;;;6156203;23;20030;-81
2021/12/22 04:11:12;;;;;;;19.98;8.82;;;-5.30;99.90;;;;;;6156757;23;19990;-82
2021/12/22 04:13:38;;;;;;;16.67;6.75;;;-5.30;99.90;;;;;;6156189;23;20121;-81
2021/12/22 04:16:04;;;;;;;19.90;7.88;;;-5.20;99.90;;;;;;6157008;23;19986;-80
2021/12/22 04:18:30;;;;;;;19.10;7.85;;;-5.10;99.90;;;;;;6156291;23;20010;-81
2021/12/22 04:20:56;;;;;;;16.73;7.57;;;-5.10;99.90;;;;;;6157090;23;20022;-81
2021/12/22 04:23:22;;;;;;;;;;;-5.10;99.90;;;;;;6156728;23;20014;-81
2021/12/22 04:25:47;;;;;;;18.33;8.38;;;-5.10;99.90;;;;;;6156166;23;19904;-81
2021/12/22 04:28:14;;;;;;;22.02;11.30;;;-4.90;99.90;;;;;;6156073;23;19998;-80
2021/12/22 04:30:42;;;;;;;26.13;11.45;;;-4.90;99.90;;;;;;6156109;23;19990;-80
2021/12/22 04:33:08;;;;;;;23.02;11.10;;;-4.90;99.90;;;;;;6156323;23;20017;-80
2021/12/22 04:35:35;;;;;;;24.42;12.13;;;-4.90;99.90;;;;;;6156472;23;19994;-76
2021/12/22 04:38:01;;;;;;;19.77;9.48;;;-4.80;99.90;;;;;;6156413;23;20001;-75
2021/12/22 04:40:27;;;;;;;13.52;6.55;;;-4.60;99.90;;;;;;6156172;23;20001;-80
2021/12/22 04:42:53;;;;;;;13.45;6.15;;;-4.60;99.90;;;;;;6156845;23;19986;-80
2021/12/22 04:45:19;;;;;;;;;;;-4.50;99.90;;;;;;6157071;23;19992;-80
2021/12/22 04:47:53;;;;;;;15.95;7.88;;;-4.60;99.90;;;;;;6156265;23;19889;-81
2021/12/22 04:50:21;;;;;;;28.60;13.70;;;-4.50;99.90;;;;;;6156657;23;20005;-77
2021/12/22 04:52:58;;;;;;;38.33;17.42;;;-4.50;99.90;;;;;;6156368;23;20049;-79
2021/12/22 07:39:25;;;;;;;74.25;38.05;;;-2.60;99.90;;;;;;6171685;23;20105;-77
2021/12/22 07:41:51;;;;;;;;;;;-2.50;99.90;;;;;;6211415;23;20005;-79
2021/12/22 07:44:17;;;;;;;125.57;53.22;;;-2.40;99.90;;;;;;6214255;23;19912;-79
2021/12/22 07:46:43;;;;;;;;;;;-2.40;99.90;;;;;;6215254;23;19992;-79
2021/12/22 07:49:08;;;;;;;152.95;58.80;;;-2.30;99.90;;;;;;6214937;23;19888;-80
2021/12/22 07:51:34;;;;;;;;;;;-2.20;99.90;;;;;;6214549;23;19993;-81
2021/12/22 08:40:36;;;;;;;13.52;5.88;;;0.30;99.90;;;;;;6192723;23;20027;-82
2021/12/22 08:43:02;;;;;;;;;;;0.40;99.00;;;;;;6194145;23;20012;-82
2021/12/22 08:45:28;;;;;;;10.23;4.20;;;0.40;99.90;;;;;;6199509;23;19983;-82
2021/12/22 08:47:54;;;;;;;;;;;0.40;93.40;;;;;;6196403;23;20021;-82
2021/12/22 08:50:24;;;;;;;11.30;4.93;;;0.30;94.70;;;;;;6188467;23;19909;-83
2021/12/22 08:52:50;;;;;;;9.75;5.40;;;0.40;97.50;;;;;;6186435;23;20013;-82
2021/12/22 08:55:17;;;;;;;8.18;4.38;;;0.40;98.90;;;;;;6179717;23;20005;-82
2021/12/22 08:57:42;;;;;;;13.80;5.43;;;0.40;97.30;;;;;;6185014;23;20048;-83
2021/12/22 09:00:10;;;;;;;;;;;0.40;96.40;;;;;;6181082;23;19993;-82
2021/12/22 09:02:37;;;;;;;7.88;3.83;;;0.30;95.00;;;;;;6179670;23;19935;-83
2021/12/22 09:05:04;;;;;;;7.72;4.40;;;0.40;97.80;;;;;;6178844;23;20017;-84
2021/12/22 09:07:30;;;;;;;7.30;2.80;;;0.50;98.70;;;;;;6179204;23;20005;-83
2021/12/22 09:09:56;;;;;;;;;;;0.60;97.90;;;;;;6181330;23;20005;-83
2021/12/22 09:12:22;;;;;;;5.65;2.33;;;0.60;97.20;;;;;;6179953;23;19885;-83
2021/12/22 09:14:47;;;;;;;;;;;0.70;95.90;;;;;;6181110;23;20013;-83
2021/12/22 09:17:13;;;;;;;8.80;3.33;;;0.60;95.80;;;;;;6179919;23;19901;-83
2021/12/22 09:19:39;;;;;;;7.70;3.50;;;0.60;97.40;;;;;;6182078;23;20053;-83
2021/12/22 09:22:05;;;;;;;5.38;2.40;;;0.60;97.70;;;;;;6180174;23;20018;-83
2021/12/22 09:24:31;;;;;;;;;;;0.60;97.60;;;;;;6180844;23;20016;-83
2021/12/22 09:26:57;;;;;;;11.38;4.45;;;0.50;97.90;;;;;;6180927;23;19904;-83
2021/12/22 09:29:26;;;;;;;;;;;0.40;99.40;;;;;;6182328;23;19997;-83
2021/12/22 09:31:52;;;;;;;48.92;19.08;;;0.30;99.90;;;;;;6181947;23;19900;-82
2021/12/22 09:34:18;;;;;;;24.40;11.75;;;0.30;99.60;;;;;;6182125;23;19997;-82
2021/12/22 09:36:44;;;;;;;;;;;0.20;99.90;;;;;;6181899;23;19997;-82
2021/12/22 09:39:10;;;;;;;12.45;5.25;;;0.20;99.80;;;;;;6183159;23;20187;-83
2021/12/22 09:41:35;;;;;;;;;;;0.10;99.80;;;;;;6184886;23;20005;-81
2021/12/22 09:44:04;;;;;;;10.85;5.13;;;0.00;99.80;;;;;;6184608;23;19904;-84
2021/12/22 09:46:30;;;;;;;15.65;7.10;;;-0.10;99.80;;;;;;6184908;23;19989;-83
2021/12/22 09:49:07;;;;;;;10.80;4.88;;;0.00;99.60;;;;;;6184928;23;20009;-82
2021/12/22 09:54:04;;;;;;;10.52;4.40;;;0.00;99.90;;;;;;6194804;23;20005;-84
2021/12/22 09:56:30;;;;;;;10.00;4.18;;;-0.10;99.90;;;;;;6184928;23;20050;-82
2021/12/22 09:58:56;;;;;;;15.68;4.85;;;-0.10;99.90;;;;;;6184817;23;20001;-81
2021/12/22 10:01:25;;;;;;;9.82;4.10;;;-0.10;99.90;;;;;;6184661;23;20001;-83
2021/12/22 10:03:58;;;;;;;7.82;3.60;;;-0.20;99.90;;;;;;6182807;23;19997;-83
2021/12/22 10:06:24;;;;;;;7.32;3.58;;;-0.20;99.90;;;;;;6183374;23;20033;-82
2021/12/22 10:08:57;;;;;;;9.48;4.90;;;-0.10;99.90;;;;;;6183984;23;20027;-83
2021/12/22 10:11:24;;;;;;;8.43;4.30;;;-0.10;99.90;;;;;;6184331;23;19996;-83
2021/12/22 10:13:50;;;;;;;13.55;5.55;;;-0.10;99.90;;;;;;6183729;23;20061;-82
2021/12/22 10:16:23;;;;;;;11.00;4.40;;;0.00;99.90;;;;;;6183216;23;19994;-81
2021/12/22 10:19:07;;;;;;;10.13;4.57;;;0.00;99.90;;;;;;6183367;23;20009;-84
2021/12/22 10:21:36;;;;;;;10.30;4.88;;;0.00;99.90;;;;;;6183573;23;20010;-83
2021/12/22 10:24:05;;;;;;;7.40;3.35;;;0.10;99.90;;;;;;6184127;23;20000;-81
2021/12/22 10:26:32;;;;;;;11.15;3.90;;;0.10;99.90;;;;;;6183305;23;20006;-82
2021/12/22 10:29:05;;;;;;;16.45;6.68;;;0.30;99.90;;;;;;6182639;23;19981;-83
2021/12/22 10:31:45;;;;;;;22.00;9.70;;;0.50;99.90;;;;;;6182448;23;20001;-82
2021/12/22 10:34:14;;;;;;;20.63;9.43;;;0.60;99.90;;;;;;6182805;23;20017;-83
2021/12/22 10:36:55;;;;;;;43.95;18.75;;;0.90;99.70;;;;;;6182187;23;19990;-82
2021/12/22 10:39:29;;;;;;;14.75;7.13;;;1.10;98.40;;;;;;6183540;23;20369;-84
2021/12/22 10:42:07;;;;;;;15.88;6.25;;;1.20;96.50;;;;;;6182130;23;20032;-84
2021/12/22 10:44:41;;;;;;;15.07;7.53;;;1.20;94.10;;;;;;6183647;23;19990;-84
2021/12/22 10:47:15;;;;;;;9.60;4.22;;;1.20;94.20;;;;;;6181709;23;20024;-82
2021/12/22 10:49:40;;;;;;;8.77;5.03;;;1.20;93.80;;;;;;6180918;23;20006;-83
2021/12/22 10:52:06;;;;;;;;;;;1.10;94.00;;;;;;6181677;23;19988;-82
2021/12/22 10:54:35;;;;;;;10.23;3.80;;;1.10;95.40;;;;;;6181693;23;19885;-83
2021/12/22 10:57:04;;;;;;;10.23;4.20;;;1.10;94.50;;;;;;6180902;23;19993;-83
2021/12/22 10:59:45;;;;;;;7.68;3.95;;;1.10;93.90;;;;;;6181979;23;20005;-83
2021/12/22 11:02:18;;;;;;;9.48;3.72;;;1.20;94.40;;;;;;6180593;23;20040;-83
2021/12/22 11:04:45;;;;;;;7.53;3.63;;;1.20;94.60;;;;;;6180940;23;20022;-83
2021/12/22 11:07:23;;;;;;;7.15;3.00;;;1.20;94.80;;;;;;6182529;23;20000;-83
2021/12/22 11:09:50;;;;;;;5.55;3.00;;;1.10;94.80;;;;;;6181277;23;20010;-83
2021/12/22 11:12:17;;;;;;;6.80;3.17;;;1.00;95.10;;;;;;6182275;23;20013;-83
2021/12/22 11:14:50;;;;;;;6.63;2.42;;;0.90;94.80;;;;;;6182128;23;20006;-83
2021/12/22 11:17:19;;;;;;;9.10;2.72;;;0.70;95.80;;;;;;6182504;23;20042;-83
2021/12/22 11:20:03;;;;;;;6.30;2.92;;;0.60;95.90;;;;;;6183319;23;20064;-83
2021/12/22 11:22:57;;;;;;;6.38;3.03;;;0.40;96.10;;;;;;6183033;23;20015;-83
2021/12/22 11:25:25;;;;;;;5.95;2.47;;;0.30;96.70;;;;;;6183138;23;20009;-81
2021/12/22 11:27:52;;;;;;;5.45;2.88;;;0.20;97.80;;;;;;6183738;23;20041;-83
2021/12/22 11:30:19;;;;;;;8.57;3.17;;;0.10;98.80;;;;;;6182446;23;20032;-83
2021/12/22 11:32:45;;;;;;;50.63;18.67;;;0.20;98.50;;;;;;6183110;23;20036;-83
2021/12/22 11:35:13;;;;;;;26.80;10.82;;;0.30;95.70;;;;;;6182630;23;20013;-83
2021/12/22 11:37:39;;;;;;;9.48;3.85;;;0.30;94.40;;;;;;6182941;23;20009;-83
2021/12/22 11:40:11;;;;;;;11.55;5.47;;;0.20;94.60;;;;;;6183311;23;19997;-84
2021/12/22 11:42:39;;;;;;;11.05;4.88;;;0.20;94.20;;;;;;6182943;23;20009;-84
2021/12/22 11:45:12;;;;;;;7.18;3.13;;;0.10;94.20;;;;;;6183478;23;20005;-83
2021/12/22 11:47:43;;;;;;;5.55;2.80;;;0.00;94.20;;;;;;6183110;23;20013;-83
2021/12/22 11:50:23;;;;;;;7.43;3.28;;;0.10;92.10;;;;;;6184159;23;19986;-83
2021/12/22 11:53:15;;;;;;;9.10;3.85;;;0.00;92.90;;;;;;6184097;23;19989;-81
2021/12/22 11:55:51;;;;;;;6.65;3.38;;;-0.20;94.80;;;;;;6179905;23;20062;-84
2021/12/22 11:58:23;;;;;;;7.60;4.10;;;-0.20;95.00;;;;;;6183752;23;20013;-82
2021/12/22 12:00:54;;;;;;;11.52;3.78;;;-0.10;95.20;;;;;;6184454;23;20006;-84
2021/12/22 12:03:28;;;;;;;9.43;3.53;;;-0.40;95.90;;;;;;6184352;23;19992;-83
2021/12/22 12:06:11;;;;;;;5.88;2.70;;;-0.40;96.00;;;;;;6184597;23;20038;-80
2021/12/22 12:08:48;;;;;;;6.13;2.25;;;-0.50;94.50;;;;;;6183941;23;19989;-83
2021/12/22 12:11:18;;;;;;;7.25;2.65;;;-0.50;93.90;;;;;;6184555;23;19986;-83
2021/12/22 12:14:02;;;;;;;6.90;2.60;;;-0.70;94.20;;;;;;6183832;23;20017;-84
2021/12/22 12:22:19;;;;;;;3.75;1.67;;;-0.60;93.40;;;;;;6187541;23;20033;-82
2021/12/22 12:24:54;;;;;;;7.43;2.38;;;-0.60;92.00;;;;;;6180473;23;20014;-79
2021/12/22 12:27:37;;;;;;;4.60;1.65;;;-0.70;92.00;;;;;;6189141;23;20013;-82
2021/12/22 12:30:11;;;;;;;5.05;2.00;;;-0.60;92.60;;;;;;6188495;23;20009;-82
2021/12/22 12:32:40;;;;;;;3.65;1.75;;;-0.60;93.50;;;;;;6179816;23;19998;-83
2021/12/22 12:35:18;;;;;;;8.93;2.20;;;-0.60;94.90;;;;;;6189067;23;20006;-81
2021/12/22 12:38:08;;;;;;;5.78;2.35;;;-0.60;96.10;;;;;;6190540;23;20057;-82
2021/12/22 12:41:05;;;;;;;7.20;2.42;;;-0.50;96.30;;;;;;6187902;23;20010;-82
2021/12/22 12:46:24;;;;;;;6.55;2.33;;;-0.40;96.10;;;;;;6185567;23;20012;-83
2021/12/22 12:48:55;;;;;;;5.00;2.45;;;-0.40;93.40;;;;;;6188977;23;20045;-83
2021/12/22 12:51:26;;;;;;;11.68;3.13;;;-0.40;94.60;;;;;;6186928;23;20009;-81
2021/12/22 14:27:49;;;;;;;8.23;3.53;;;-1.30;99.90;;;;;;6177341;23;20061;-77
2021/12/22 14:30:35;;;;;;;5.93;3.00;;;-1.40;99.90;;;;;;6214883;23;19993;-77
2021/12/22 14:33:19;;;;;;;6.68;3.47;;;-1.40;99.90;;;;;;6215567;23;19985;-77
2021/12/22 14:35:58;;;;;;;7.43;3.50;;;-1.40;99.90;;;;;;6214909;23;20040;-76
2021/12/22 14:38:27;;;;;;;5.95;3.17;;;-1.60;99.90;;;;;;6214924;23;20008;-77
2021/12/22 14:40:57;;;;;;;9.00;4.00;;;-1.60;99.90;;;;;;6215380;23;20012;-78
2021/12/22 14:43:34;;;;;;;7.57;3.60;;;-1.80;99.90;;;;;;6215451;23;20120;-77
2021/12/22 14:46:00;;;;;;;10.40;4.22;;;-1.70;99.90;;;;;;6214361;23;19993;-77
2021/12/22 14:48:30;;;;;;;;;;;-2.00;99.90;;;;;;6215843;23;19996;-76
2021/12/22 14:50:57;;;;;;;11.38;3.85;;;-1.90;99.90;;;;;;6215451;23;19889;-78
2021/12/22 17:51:18;;;;;;;224.85;94.05;;;-5.40;99.90;;;;;;6157567;23;20065;-78
2021/12/22 17:53:44;;;;;;;229.05;100.78;;;-5.60;99.90;;;;;;6185376;23;19989;-77
2021/12/22 17:56:09;;;;;;;252.25;105.82;;;-5.60;99.90;;;;;;6185279;23;20085;-79
2021/12/22 17:58:35;;;;;;;245.50;107.43;;;-5.60;99.90;;;;;;6185926;23;20033;-79
2021/12/22 18:01:01;;;;;;;226.85;100.93;;;-5.60;99.90;;;;;;6185811;23;20021;-76
2021/12/22 18:03:31;;;;;;;235.57;98.13;;;-5.70;99.90;;;;;;6185929;23;20009;-78
2021/12/22 18:06:09;;;;;;;236.48;101.43;;;-5.60;99.90;;;;;;6185895;23;19996;-78
2021/12/22 18:08:38;;;;;;;220.98;87.35;;;-5.60;99.90;;;;;;6185253;23;19990;-77
2021/12/22 18:11:06;;;;;;;200.95;86.53;;;-5.60;99.90;;;;;;6185118;23;19994;-76
2021/12/22 18:13:34;;;;;;;168.48;74.15;;;-5.60;99.90;;;;;;6185804;23;19989;-79
2021/12/22 18:16:00;;;;;;;130.52;60.97;;;-5.80;99.90;;;;;;6184559;23;20061;-77
2021/12/22 18:18:25;;;;;;;100.22;47.50;;;-5.60;99.90;;;;;;6184590;23;19994;-77
2021/12/22 18:20:52;;;;;;;83.53;44.83;;;-5.60;99.90;;;;;;6183858;23;19998;-78
2021/12/22 18:23:18;;;;;;;64.78;34.92;;;-5.60;99.90;;;;;;6185056;23;20010;-76
2021/12/22 18:25:43;;;;;;;83.07;39.20;;;-5.60;99.90;;;;;;6185664;23;19997;-77
2021/12/22 18:28:09;;;;;;;51.85;30.58;;;-5.60;99.90;;;;;;6185757;23;20079;-77
2021/12/22 18:30:37;;;;;;;46.88;25.42;;;-5.50;99.90;;;;;;6185694;23;19985;-76
2021/12/22 18:33:05;;;;;;;40.00;19.70;;;-5.50;99.90;;;;;;6184946;23;20058;-76
2021/12/22 18:35:33;;;;;;;68.05;27.45;;;-5.80;99.90;;;;;;6185538;23;20032;-76
2021/12/22 18:43:07;;;;;;;102.10;43.72;;;-5.70;99.90;;;;;;6195482;23;20070;-77
2021/12/22 18:45:33;;;;;;;97.70;40.10;;;-5.80;99.90;;;;;;6184713;23;19993;-79
2021/12/22 18:47:59;;;;;;;96.32;39.60;;;-5.80;99.90;;;;;;6184532;23;20013;-82
2021/12/22 18:50:26;;;;;;;96.32;37.92;;;-5.90;99.90;;;;;;6184587;23;20001;-79
2021/12/22 18:52:53;;;;;;;140.75;47.92;;;-5.80;99.90;;;;;;6184600;23;20012;-82
2021/12/22 18:55:19;;;;;;;150.90;51.92;;;-5.80;99.90;;;;;;6184410;23;20062;-81
2021/12/22 19:12:09;;;;;;;130.23;51.90;;;-5.80;99.90;;;;;;5075291;28;20415;-77
2021/12/22 19:14:34;;;;;;;99.43;43.40;;;-5.90;99.90;;;;;;5076629;28;20971;-81
2021/12/22 19:17:00;;;;;;;101.18;43.33;;;-5.90;99.90;;;;;;5076164;28;20029;-82
2021/12/22 19:19:26;;;;;;;113.72;50.95;;;-5.90;99.90;;;;;;5075324;28;20068;-80
2021/12/22 19:21:52;;;;;;;107.47;49.53;;;-5.90;99.90;;;;;;5076214;28;20037;-79
2021/12/22 19:24:18;;;;;;;147.55;65.75;;;-6.00;99.90;;;;;;5076298;28;20037;-78
2021/12/22 19:26:44;;;;;;;249.75;99.32;;;-6.00;99.90;;;;;;5076501;28;20010;-79
2021/12/22 19:29:09;;;;;;;205.13;85.63;;;-6.00;99.90;;;;;;5076176;28;20037;-77
2021/12/22 19:31:35;;;;;;;175.95;76.60;;;-6.10;99.90;;;;;;5075756;28;20043;-77
2021/12/22 19:34:02;;;;;;;177.68;72.35;;;-6.10;99.90;;;;;;5075445;28;20044;-80
2021/12/22 19:36:27;;;;;;;146.35;61.85;;;-6.10;99.90;;;;;;5075646;28;20080;-80
2021/12/22 19:38:53;;;;;;;165.55;65.90;;;-6.20;99.90;;;;;;5075709;28;20015;-78
2021/12/22 19:41:20;;;;;;;150.23;59.38;;;-6.30;99.90;;;;;;5076299;28;20018;-81
2021/12/22 19:43:47;;;;;;;123.55;52.72;;;-6.30;99.90;;;;;;5076167;28;20017;-77
2021/12/22 19:46:14;;;;;;;118.65;47.15;;;-6.20;99.90;;;;;;5076113;28;20002;-79
2021/12/22 19:48:40;;;;;;;106.10;41.22;;;-6.30;99.90;;;;;;5075379;28;20025;-79
